createdAt,value
2023-01-18T00:01:19.469Z,-1.70
2023-01-18T00:03:46.845Z,-1.80
2023-01-18T00:06:13.960Z,-1.80
2023-01-18T00:08:42.567Z,-1.70
2023-01-18T00:11:16.975Z,-1.70
2023-01-18T00:13:44.519Z,-1.70
2023-01-18T00:16:20.761Z,-1.60
2023-01-18T00:18:59.054Z,-1.60
2023-01-18T00:21:28.141Z,-1.70
2023-01-18T00:23:56.828Z,-1.80
2023-01-18T00:26:23.830Z,-1.80
2023-01-18T00:28:50.842Z,-1.90
2023-01-18T00:31:21.001Z,-1.80
2023-01-18T00:33:50.239Z,-1.80
2023-01-18T00:36:18.521Z,-1.70
2023-01-18T00:38:52.380Z,-1.60
2023-01-18T00:41:20.837Z,-1.50
2023-01-18T00:43:47.973Z,-1.50
2023-01-18T00:46:19.195Z,-1.60
2023-01-18T00:48:46.161Z,-1.60
2023-01-18T00:51:17.314Z,-1.60
2023-01-18T00:53:45.167Z,-1.60
2023-01-18T00:56:17.446Z,-1.60
2023-01-18T00:58:45.094Z,-1.50
2023-01-18T01:01:13.365Z,-1.40
2023-01-18T01:03:58.910Z,-1.40
2023-01-18T01:06:45.500Z,-1.50
2023-01-18T01:09:24.635Z,-1.50
2023-01-18T01:12:10.984Z,-1.50
2023-01-18T01:15:01.322Z,-1.50
2023-01-18T01:17:52.977Z,-1.50
2023-01-18T01:20:39.185Z,-1.50
2023-01-18T01:23:38.035Z,-1.40
2023-01-18T01:26:13.192Z,-1.40
2023-01-18T01:28:46.469Z,-1.40
2023-01-18T01:31:16.312Z,-1.40
2023-01-18T01:33:44.958Z,-1.30
2023-01-18T01:36:19.087Z,-1.30
2023-01-18T01:38:46.249Z,-1.30
2023-01-18T01:41:35.154Z,-1.30
2023-01-18T01:44:28.241Z,-1.30
2023-01-18T01:47:32.057Z,-1.30
2023-01-18T01:50:06.875Z,-1.30
2023-01-18T01:52:37.622Z,-1.30
2023-01-18T01:55:13.681Z,-1.30
2023-01-18T01:57:58.769Z,-1.30
2023-01-18T02:00:26.223Z,-1.30
2023-01-18T02:03:24.133Z,-1.30
2023-01-18T02:06:01.967Z,-1.40
2023-01-18T02:08:29.051Z,-1.30
2023-01-18T02:10:56.083Z,-1.30
2023-01-18T02:13:24.903Z,-1.20
2023-01-18T02:16:15.430Z,-1.20
2023-01-18T02:19:29.823Z,-1.20
2023-01-18T02:22:04.615Z,-1.10
2023-01-18T02:24:49.051Z,-1.10
2023-01-18T02:27:30.945Z,-1.10
2023-01-18T02:30:09.371Z,-1.20
2023-01-18T02:33:06.877Z,-1.20
2023-01-18T02:35:44.592Z,-1.20
2023-01-18T02:38:28.509Z,-1.20
2023-01-18T02:41:19.077Z,-1.20
2023-01-18T02:44:07.693Z,-1.20
2023-01-18T02:46:35.050Z,-1.10
2023-01-18T02:49:12.828Z,-1.10
2023-01-18T02:51:39.802Z,-1.10
2023-01-18T02:54:10.109Z,-1.20
2023-01-18T02:56:42.932Z,-1.20
2023-01-18T02:59:29.980Z,-1.20
2023-01-18T03:02:07.752Z,-1.20
2023-01-18T03:04:41.280Z,-1.30
2023-01-18T03:07:17.801Z,-1.30
2023-01-18T03:09:45.904Z,-1.40
2023-01-18T03:12:45.976Z,-1.40
2023-01-18T03:15:36.273Z,-1.30
2023-01-18T03:18:16.531Z,-1.30
2023-01-18T03:20:52.949Z,-1.20
2023-01-18T03:23:38.654Z,-1.20
2023-01-18T03:26:19.285Z,-1.20
2023-01-18T03:29:17.421Z,-1.20
2023-01-18T03:32:16.994Z,-1.10
2023-01-18T03:34:57.592Z,-1.20
2023-01-18T03:37:32.935Z,-1.10
2023-01-18T03:40:23.781Z,-1.10
2023-01-18T03:43:03.788Z,-1.10
2023-01-18T03:45:37.989Z,-1.10
2023-01-18T03:48:08.588Z,-1.20
2023-01-18T03:51:05.541Z,-1.20
2023-01-18T03:53:49.204Z,-1.20
2023-01-18T03:56:26.259Z,-1.20
2023-01-18T03:58:57.745Z,-1.20
2023-01-18T04:01:26.089Z,-1.20
2023-01-18T04:03:53.578Z,-1.20
2023-01-18T04:06:23.010Z,-1.20
2023-01-18T04:08:50.522Z,-1.10
2023-01-18T04:11:17.911Z,-1.10
2023-01-18T04:13:45.195Z,-1.00
2023-01-18T04:16:12.275Z,-1.00
2023-01-18T04:18:39.322Z,-1.00
2023-01-18T04:21:06.295Z,-1.00
2023-01-18T04:23:33.237Z,-1.00
2023-01-18T04:26:00.509Z,-1.00
2023-01-18T04:28:27.608Z,-1.00
2023-01-18T04:30:56.738Z,-0.90
2023-01-18T04:33:26.718Z,-0.90
2023-01-18T04:35:54.363Z,-0.90
2023-01-18T04:38:21.626Z,-0.90
2023-01-18T04:40:48.586Z,-0.90
2023-01-18T04:43:15.616Z,-0.90
2023-01-18T04:45:42.642Z,-0.90
2023-01-18T04:48:09.608Z,-0.90
2023-01-18T04:50:39.601Z,-0.90
2023-01-18T04:53:06.556Z,-0.90
2023-01-18T04:55:33.566Z,-0.90
2023-01-18T04:58:01.156Z,-0.90
2023-01-18T05:00:28.221Z,-0.90
2023-01-18T05:02:55.894Z,-0.90
2023-01-18T05:05:23.971Z,-0.90
2023-01-18T05:07:50.975Z,-0.90
2023-01-18T05:10:17.952Z,-0.80
2023-01-18T05:12:44.876Z,-0.80
2023-01-18T05:15:12.068Z,-0.80
2023-01-18T05:17:39.488Z,-0.80
2023-01-18T05:20:08.782Z,-0.80
2023-01-18T05:22:37.234Z,-0.80
2023-01-18T05:25:05.957Z,-0.80
2023-01-18T05:27:33.527Z,-0.80
2023-01-18T05:30:01.807Z,-0.80
2023-01-18T05:32:29.000Z,-0.80
2023-01-18T05:34:56.031Z,-0.80
2023-01-18T05:37:23.062Z,-0.80
2023-01-18T05:39:50.033Z,-0.80
2023-01-18T05:42:17.026Z,-0.80
2023-01-18T05:44:44.068Z,-0.90
2023-01-18T05:47:10.993Z,-0.90
2023-01-18T05:49:38.496Z,-0.90
2023-01-18T05:52:08.328Z,-0.90
2023-01-18T05:54:35.285Z,-0.90
2023-01-18T05:57:02.639Z,-0.90
2023-01-18T05:59:29.662Z,-0.90
2023-01-18T06:01:56.750Z,-0.90
2023-01-18T06:04:23.806Z,-0.90
2023-01-18T06:06:50.815Z,-0.90
2023-01-18T06:09:17.760Z,-0.90
2023-01-18T06:11:44.709Z,-0.90
2023-01-18T06:14:11.644Z,-0.90
2023-01-18T06:16:38.801Z,-0.90
2023-01-18T06:19:05.826Z,-0.90
2023-01-18T06:21:32.913Z,-0.90
2023-01-18T06:23:59.884Z,-0.80
2023-01-18T06:26:26.994Z,-0.80
2023-01-18T06:28:53.927Z,-0.80
2023-01-18T06:31:20.928Z,-0.80
2023-01-18T06:33:48.559Z,-0.70
2023-01-18T06:36:15.800Z,-0.70
2023-01-18T06:38:42.921Z,-0.70
2023-01-18T06:41:09.940Z,-0.60
2023-01-18T06:43:36.915Z,-0.60
2023-01-18T06:46:07.697Z,-0.60
2023-01-18T06:48:34.756Z,-0.50
2023-01-18T06:51:01.693Z,-0.50
2023-01-18T06:53:28.694Z,-0.50
2023-01-18T06:56:01.877Z,-0.50
2023-01-18T06:58:32.805Z,-0.50
2023-01-18T07:01:01.200Z,-0.50
2023-01-18T07:03:30.377Z,-0.50
2023-01-18T07:05:59.962Z,-0.50
2023-01-18T07:08:28.102Z,-0.40
2023-01-18T07:10:55.361Z,-0.50
2023-01-18T07:13:22.713Z,-0.50
2023-01-18T07:16:08.720Z,-0.50
2023-01-18T07:18:35.655Z,-0.50
2023-01-18T07:21:10.113Z,-0.60
2023-01-18T07:23:39.698Z,-0.60
2023-01-18T07:26:17.008Z,-0.60
2023-01-18T07:28:45.557Z,-0.60
2023-01-18T07:31:13.189Z,-0.60
2023-01-18T07:33:40.194Z,-0.70
2023-01-18T07:36:09.609Z,-0.70
2023-01-18T07:38:38.252Z,-0.60
2023-01-18T07:41:09.619Z,-0.60
2023-01-18T07:43:40.220Z,-0.70
2023-01-18T07:46:11.902Z,-0.70
2023-01-18T07:48:39.246Z,-0.70
2023-01-18T07:51:08.697Z,-0.70
2023-01-18T07:53:38.275Z,-0.70
2023-01-18T07:56:15.663Z,-0.70
2023-01-18T07:58:43.700Z,-0.70
2023-01-18T08:01:20.913Z,-0.70
2023-01-18T08:03:49.989Z,-0.70
2023-01-18T08:06:24.856Z,-0.70
2023-01-18T08:08:53.951Z,-0.70
2023-01-18T08:11:21.032Z,-0.60
2023-01-18T08:13:49.353Z,-0.60
2023-01-18T08:16:16.611Z,-0.60
2023-01-18T08:18:45.497Z,-0.60
2023-01-18T08:21:13.966Z,-0.60
2023-01-18T08:23:41.811Z,-0.50
2023-01-18T08:26:10.760Z,-0.30
2023-01-18T08:28:37.878Z,-0.20
2023-01-18T08:31:14.612Z,0.10
2023-01-18T08:33:47.632Z,0.40
2023-01-18T08:36:21.509Z,1.00
2023-01-18T08:38:55.307Z,1.60
2023-01-18T08:41:28.149Z,2.10
2023-01-18T08:43:59.824Z,2.30
2023-01-18T08:46:27.147Z,1.80
2023-01-18T08:48:56.644Z,1.50
2023-01-18T08:51:26.040Z,1.20
2023-01-18T08:53:57.281Z,1.10
2023-01-18T08:56:25.388Z,1.50
2023-01-18T08:58:52.467Z,2.10
2023-01-18T09:01:20.024Z,2.60
2023-01-18T09:03:48.790Z,3.00
2023-01-18T09:06:16.845Z,3.20
2023-01-18T09:08:47.409Z,3.30
2023-01-18T09:11:18.766Z,3.60
2023-01-18T09:13:59.752Z,3.70
2023-01-18T09:16:28.444Z,3.80
2023-01-18T09:18:56.391Z,3.80
2023-01-18T09:21:23.865Z,3.90
2023-01-18T09:23:51.183Z,3.90
2023-01-18T09:26:20.680Z,3.80
2023-01-18T09:29:29.493Z,3.70
2023-01-18T09:31:56.425Z,3.70
2023-01-18T09:34:23.667Z,3.70
2023-01-18T09:36:52.279Z,3.70
2023-01-18T09:39:21.299Z,3.80
2023-01-18T09:42:02.516Z,3.80
2023-01-18T09:44:39.580Z,3.80
2023-01-18T09:47:24.930Z,3.80
2023-01-18T09:50:02.380Z,3.70
2023-01-18T09:52:57.945Z,3.60
2023-01-18T09:55:42.474Z,3.70
2023-01-18T09:58:44.106Z,3.80
2023-01-18T10:01:26.015Z,3.80
2023-01-18T10:04:07.439Z,3.60
2023-01-18T10:07:07.516Z,3.60
2023-01-18T10:09:55.653Z,3.50
2023-01-18T10:12:34.622Z,3.50
2023-01-18T10:15:22.541Z,3.40
2023-01-18T10:17:55.823Z,3.40
2023-01-18T10:20:46.810Z,3.50
2023-01-18T10:23:44.309Z,3.60
2023-01-18T10:26:29.065Z,3.70
2023-01-18T10:29:35.571Z,3.80
2023-01-18T10:32:21.577Z,3.80
2023-01-18T10:34:51.921Z,3.80
2023-01-18T10:37:40.197Z,3.90
2023-01-18T10:40:12.545Z,4.00
2023-01-18T10:42:51.321Z,4.10
2023-01-18T10:45:30.895Z,4.00
2023-01-18T10:48:18.453Z,4.10
2023-01-18T10:50:53.271Z,4.00
2023-01-18T10:53:38.991Z,3.90
2023-01-18T10:56:19.771Z,4.00
2023-01-18T10:58:54.432Z,3.90
2023-01-18T11:01:25.738Z,3.90
2023-01-18T11:03:57.483Z,3.80
2023-01-18T11:06:26.359Z,3.80
2023-01-18T11:08:54.001Z,3.90
2023-01-18T11:11:49.480Z,4.00
2023-01-18T11:14:35.055Z,3.90
2023-01-18T11:17:11.500Z,4.10
2023-01-18T11:19:39.334Z,4.20
2023-01-18T11:22:17.614Z,4.50
2023-01-18T11:24:44.608Z,4.50
2023-01-18T11:27:23.557Z,4.50
2023-01-18T11:29:51.005Z,4.50
2023-01-18T11:32:30.568Z,4.50
2023-01-18T11:35:02.899Z,4.60
2023-01-18T11:37:38.785Z,4.70
2023-01-18T11:40:21.185Z,4.70
2023-01-18T11:42:51.662Z,4.70
2023-01-18T11:45:32.670Z,4.70
2023-01-18T11:48:30.266Z,4.90
2023-01-18T11:51:08.397Z,4.90
2023-01-18T11:54:14.117Z,5.00
2023-01-18T11:56:48.119Z,5.00
2023-01-18T11:59:45.637Z,4.80
2023-01-18T12:02:39.135Z,4.90
2023-01-18T12:05:28.487Z,5.10
2023-01-18T12:08:17.312Z,5.20
2023-01-18T12:11:28.546Z,5.30
2023-01-18T12:14:25.610Z,5.30
2023-01-18T12:16:56.340Z,5.30
2023-01-18T12:19:58.538Z,5.30
2023-01-18T12:22:54.475Z,5.30
2023-01-18T12:25:45.642Z,5.50
2023-01-18T12:28:56.397Z,5.40
2023-01-18T12:31:41.570Z,5.50
2023-01-18T12:34:24.025Z,5.60
2023-01-18T12:37:42.349Z,5.70
2023-01-18T12:40:49.502Z,5.80
2023-01-18T12:43:30.332Z,5.80
2023-01-18T12:46:09.490Z,5.80
2023-01-18T12:48:53.243Z,5.80
2023-01-18T12:51:25.810Z,5.80
2023-01-18T12:54:20.122Z,5.90
2023-01-18T12:56:50.638Z,5.90
2023-01-18T12:59:28.844Z,5.90
2023-01-18T13:02:36.552Z,5.80
2023-01-18T13:05:19.117Z,5.90
2023-01-18T13:07:58.844Z,5.80
2023-01-18T13:10:28.873Z,5.80
2023-01-18T13:12:57.239Z,6.00
2023-01-18T13:15:56.412Z,6.20
2023-01-18T13:18:46.400Z,6.20
2023-01-18T13:21:56.313Z,6.30
2023-01-18T13:25:08.978Z,6.20
2023-01-18T13:27:37.867Z,6.20
2023-01-18T13:30:17.031Z,6.20
2023-01-18T13:32:45.435Z,6.20
2023-01-18T13:35:21.285Z,6.20
2023-01-18T13:37:56.445Z,6.30
2023-01-18T13:41:04.259Z,6.30
2023-01-18T13:43:36.650Z,6.20
2023-01-18T13:46:09.767Z,6.30
2023-01-18T13:49:02.482Z,6.20
2023-01-18T13:51:41.645Z,6.20
2023-01-18T13:54:12.442Z,6.20
2023-01-18T13:56:40.495Z,6.20
2023-01-18T13:59:23.305Z,6.20
2023-01-18T14:01:51.188Z,6.30
2023-01-18T14:04:29.192Z,6.40
2023-01-18T14:07:00.651Z,6.40
2023-01-18T14:09:40.390Z,6.40
2023-01-18T14:12:08.222Z,6.30
2023-01-18T14:14:58.927Z,6.30
2023-01-18T14:17:26.952Z,6.30
2023-01-18T14:19:59.779Z,6.30
2023-01-18T14:22:38.573Z,6.20
2023-01-18T14:25:39.151Z,6.20
2023-01-18T14:28:15.125Z,6.10
2023-01-18T14:30:44.105Z,5.90
2023-01-18T14:33:25.337Z,5.70
2023-01-18T14:36:01.952Z,5.60
2023-01-18T14:38:30.290Z,5.50
2023-01-18T14:41:05.125Z,5.50
2023-01-18T14:43:42.764Z,5.50
2023-01-18T14:46:17.087Z,5.50
2023-01-18T14:48:57.198Z,5.50
2023-01-18T14:51:28.113Z,5.60
2023-01-18T14:54:02.028Z,5.60
2023-01-18T14:56:33.250Z,5.70
2023-01-18T14:59:16.645Z,5.70
2023-01-18T15:02:14.945Z,5.80
2023-01-18T15:04:45.791Z,5.80
2023-01-18T15:07:28.249Z,5.80
2023-01-18T15:09:56.419Z,5.80
2023-01-18T15:12:30.885Z,5.80
2023-01-18T15:15:07.926Z,5.70
2023-01-18T15:17:37.383Z,5.70
2023-01-18T15:20:12.229Z,5.70
2023-01-18T15:22:40.634Z,5.70
2023-01-18T15:25:23.369Z,5.70
2023-01-18T15:27:52.469Z,5.60
2023-01-18T15:30:23.863Z,5.60
2023-01-18T15:32:58.142Z,5.50
2023-01-18T15:35:25.970Z,5.40
2023-01-18T15:37:53.079Z,5.30
2023-01-18T15:40:20.117Z,5.20
2023-01-18T15:43:04.685Z,5.10
2023-01-18T15:45:39.451Z,5.00
2023-01-18T15:48:18.661Z,5.00
2023-01-18T15:50:56.087Z,4.90
2023-01-18T15:53:28.728Z,4.90
2023-01-18T15:56:26.094Z,4.80
2023-01-18T15:58:56.011Z,4.70
2023-01-18T16:01:35.310Z,4.70
2023-01-18T16:04:23.091Z,4.60
2023-01-18T16:06:50.154Z,4.50
2023-01-18T16:09:23.084Z,4.40
2023-01-18T16:11:54.015Z,4.30
2023-01-18T16:14:21.179Z,4.30
2023-01-18T16:16:48.719Z,4.30
2023-01-18T16:19:29.094Z,4.20
2023-01-18T16:22:00.220Z,4.20
2023-01-18T16:24:46.190Z,4.10
2023-01-18T16:27:19.536Z,4.10
2023-01-18T16:29:59.632Z,4.00
2023-01-18T16:32:29.118Z,4.00
2023-01-18T16:35:09.994Z,3.90
2023-01-18T16:37:41.339Z,3.80
2023-01-18T16:40:09.988Z,3.70
2023-01-18T16:43:01.598Z,3.60
2023-01-18T16:45:31.466Z,3.60
2023-01-18T16:47:58.742Z,3.50
2023-01-18T16:50:26.369Z,3.60
2023-01-18T16:52:53.320Z,3.50
2023-01-18T16:55:20.378Z,3.40
2023-01-18T16:57:47.322Z,3.40
2023-01-18T17:00:25.282Z,3.40
2023-01-18T17:02:53.314Z,3.40
2023-01-18T17:05:20.911Z,3.40
2023-01-18T17:07:48.236Z,3.40
2023-01-18T17:10:29.435Z,3.40
2023-01-18T17:12:56.458Z,3.40
2023-01-18T17:15:23.468Z,3.30
2023-01-18T17:17:50.482Z,3.30
2023-01-18T17:20:24.522Z,3.30
2023-01-18T17:22:52.853Z,3.20
2023-01-18T17:25:20.737Z,3.20
2023-01-18T17:27:48.827Z,3.20
2023-01-18T17:30:20.467Z,3.20
2023-01-18T17:32:48.039Z,3.20
2023-01-18T17:35:18.593Z,3.10
2023-01-18T17:37:45.929Z,3.10
2023-01-18T17:40:20.345Z,3.00
2023-01-18T17:42:51.800Z,3.00
2023-01-18T17:45:19.136Z,3.00
2023-01-18T17:47:46.153Z,2.90
2023-01-18T17:50:19.001Z,2.90
2023-01-18T17:52:46.040Z,3.00
2023-01-18T17:55:16.453Z,2.90
2023-01-18T17:57:44.715Z,2.90
2023-01-18T18:00:14.959Z,2.90
2023-01-18T18:02:42.445Z,2.90
2023-01-18T18:05:10.596Z,2.80
2023-01-18T18:07:37.794Z,2.90
2023-01-18T18:10:06.241Z,2.90
2023-01-18T18:12:34.956Z,2.90
2023-01-18T18:15:03.349Z,2.90
2023-01-18T18:17:32.421Z,2.80
2023-01-18T18:19:59.728Z,2.80
2023-01-18T18:22:27.199Z,2.70
2023-01-18T18:24:54.505Z,2.70
2023-01-18T18:27:23.137Z,2.60
2023-01-18T18:29:51.932Z,2.60
2023-01-18T18:32:18.951Z,2.60
2023-01-18T18:34:46.033Z,2.60
2023-01-18T18:37:15.098Z,2.70
2023-01-18T18:39:42.537Z,2.80
2023-01-18T18:42:09.497Z,2.80
2023-01-18T18:44:36.690Z,2.80
2023-01-18T18:47:05.280Z,2.90
2023-01-18T18:49:33.724Z,2.90
2023-01-18T18:52:03.693Z,2.80
2023-01-18T18:54:30.685Z,2.80
2023-01-18T18:56:57.719Z,2.60
2023-01-18T18:59:24.659Z,2.60
2023-01-18T19:01:52.289Z,2.60
2023-01-18T19:04:19.255Z,2.60
2023-01-18T19:06:46.365Z,2.60
2023-01-18T19:09:13.476Z,2.60
2023-01-18T19:11:50.418Z,2.70
2023-01-18T19:14:25.811Z,2.70
2023-01-18T19:16:53.929Z,2.70
2023-01-18T19:19:21.021Z,2.70
2023-01-18T19:21:50.793Z,2.60
2023-01-18T19:24:17.793Z,2.60
2023-01-18T19:26:45.047Z,2.60
2023-01-18T19:29:12.313Z,2.60
2023-01-18T19:31:39.797Z,2.60
2023-01-18T19:34:06.991Z,2.60
2023-01-18T19:36:34.102Z,2.60
2023-01-18T19:39:05.037Z,2.60
2023-01-18T19:41:34.027Z,2.60
2023-01-18T19:44:03.108Z,2.60
2023-01-18T19:46:30.760Z,2.60
2023-01-18T19:48:59.482Z,2.60
2023-01-18T19:51:27.805Z,2.60
2023-01-18T19:53:57.431Z,2.60
2023-01-18T19:56:25.734Z,2.60
2023-01-18T19:58:52.796Z,2.60
2023-01-18T20:01:34.805Z,2.60
2023-01-18T20:04:04.885Z,2.60
2023-01-18T20:06:32.112Z,2.60
2023-01-18T20:08:59.161Z,2.60
2023-01-18T20:11:26.189Z,2.60
2023-01-18T20:13:53.679Z,2.60
2023-01-18T20:16:20.798Z,2.60
2023-01-18T20:18:48.874Z,2.60
2023-01-18T20:21:19.092Z,2.50
2023-01-18T20:23:46.678Z,2.60
2023-01-18T20:26:24.608Z,2.60
2023-01-18T20:28:55.911Z,2.60
2023-01-18T20:31:23.211Z,2.60
2023-01-18T20:33:50.698Z,2.60
2023-01-18T20:36:17.631Z,2.60
2023-01-18T20:38:44.591Z,2.60
2023-01-18T20:41:11.658Z,2.60
2023-01-18T20:43:39.233Z,2.60
2023-01-18T20:46:10.255Z,2.60
2023-01-18T20:48:38.545Z,2.60
2023-01-18T20:51:07.574Z,2.60
2023-01-18T20:53:34.983Z,2.50
2023-01-18T20:56:04.798Z,2.50
2023-01-18T20:58:32.270Z,2.50
2023-01-18T21:01:15.766Z,2.50
2023-01-18T21:03:44.797Z,2.50
2023-01-18T21:06:12.355Z,2.50
2023-01-18T21:08:39.563Z,2.50
2023-01-18T21:11:13.224Z,2.50
2023-01-18T21:13:40.261Z,2.50
2023-01-18T21:16:07.404Z,2.50
2023-01-18T21:18:34.448Z,2.50
2023-01-18T21:21:01.428Z,2.40
2023-01-18T21:23:28.456Z,2.40
2023-01-18T21:25:58.767Z,2.30
2023-01-18T21:28:26.482Z,2.30
2023-01-18T21:30:56.892Z,2.20
2023-01-18T21:33:28.031Z,2.10
2023-01-18T21:35:55.530Z,2.10
2023-01-18T21:38:23.228Z,2.10
2023-01-18T21:40:50.328Z,2.00
2023-01-18T21:43:39.161Z,2.10
2023-01-18T21:46:10.701Z,2.10
2023-01-18T21:48:37.715Z,2.00
2023-01-18T21:51:24.656Z,2.00
2023-01-18T21:54:10.364Z,2.00
2023-01-18T21:56:38.017Z,2.10
2023-01-18T21:59:04.997Z,2.00
2023-01-18T22:01:39.011Z,2.00
2023-01-18T22:04:28.099Z,1.90
2023-01-18T22:06:58.340Z,1.90
2023-01-18T22:09:30.194Z,1.80
2023-01-18T22:11:58.500Z,1.80
2023-01-18T22:14:26.532Z,1.80
2023-01-18T22:16:53.844Z,1.80
2023-01-18T22:19:21.037Z,1.70
2023-01-18T22:21:48.896Z,1.70
2023-01-18T22:24:17.793Z,1.70
2023-01-18T22:26:45.537Z,1.70
2023-01-18T22:29:13.304Z,1.70
2023-01-18T22:31:40.840Z,1.60
2023-01-18T22:34:18.485Z,1.60
2023-01-18T22:36:45.555Z,1.60
2023-01-18T22:39:14.274Z,1.60
2023-01-18T22:41:41.514Z,1.60
2023-01-18T22:44:14.295Z,1.60
2023-01-18T22:46:41.205Z,1.50
2023-01-18T22:49:08.158Z,1.50
2023-01-18T22:51:35.759Z,1.50
2023-01-18T22:54:02.755Z,1.50
2023-01-18T22:56:29.728Z,1.50
2023-01-18T22:58:56.657Z,1.50
2023-01-18T23:01:26.172Z,1.50
2023-01-18T23:03:57.216Z,1.50
2023-01-18T23:06:24.276Z,1.50
2023-01-18T23:08:52.093Z,1.60
2023-01-18T23:11:29.752Z,1.60
2023-01-18T23:14:16.597Z,1.60
2023-01-18T23:17:02.663Z,1.60
2023-01-18T23:19:30.938Z,1.70
2023-01-18T23:21:58.335Z,1.70
2023-01-18T23:24:25.894Z,1.80
2023-01-18T23:26:52.923Z,1.80
2023-01-18T23:29:20.510Z,1.90
2023-01-18T23:31:47.715Z,1.90
2023-01-18T23:34:14.898Z,2.00
2023-01-18T23:36:41.853Z,2.00
2023-01-18T23:39:27.690Z,2.00
2023-01-18T23:42:13.197Z,2.00
2023-01-18T23:44:58.508Z,2.00
2023-01-18T23:47:44.075Z,2.00
2023-01-18T23:50:29.916Z,1.90
2023-01-18T23:53:18.989Z,2.00
2023-01-18T23:55:46.184Z,2.00
2023-01-18T23:58:13.127Z,1.90
